Time;durP1;ratioP1;P1;durP2;ratioP2;P2;SDS_P1;SDS_P2;PMS_P1;PMS_P2;Temp;Humidity;BMP_temperature;BMP_pressure;BME280_temperature;BME280_humidity;BME280_pressure;Samples;Min_cycle;Max_cycle;Signal;HPM_P1;HPM_P2
2022/04/26 03:38:07;;;;;;;9.60;8.73;;;;;;;;;;5086277;28;24479;-47
2022/04/26 03:40:32;;;;;;;9.93;9.03;;;;;;;;;;5086360;28;24995;-46
2022/04/26 03:42:57;;;;;;;9.00;8.30;;;;;;;;;;5087363;28;24773;-47
2022/04/26 03:45:22;;;;;;;10.30;9.30;;;;;;;;;;5086376;28;24960;-48
2022/04/26 03:47:49;;;;;;;9.75;8.90;;;;;;;;;;5082491;28;24414;-47
2022/04/26 03:50:14;;;;;;;10.18;9.27;;;;;;;;;;5074926;28;24999;-47
2022/04/26 03:52:40;;;;;;;10.20;9.30;;;;;;;;;;5082288;28;24451;-47
2022/04/26 03:55:05;;;;;;;9.35;8.55;;;;;;;;;;5085591;28;24418;-46
2022/04/26 03:57:31;;;;;;;10.47;9.50;;;;;;;;;;5088412;28;24776;-46
2022/04/26 03:59:56;;;;;;;9.63;8.83;;;;;;;;;;5088749;28;24740;-47
2022/04/26 04:02:22;;;;;;;9.30;8.50;;;;;;;;;;5081576;28;24959;-46
2022/04/26 04:04:47;;;;;;;8.85;8.15;;;;;;;;;;5086775;28;24563;-47
2022/04/26 04:07:12;;;;;;;10.20;9.20;;;;;;;;;;5086325;28;24437;-47
2022/04/26 04:09:37;;;;;;;10.03;9.17;;;;;;;;;;5087358;28;24422;-47
2022/04/26 04:12:02;;;;;;;9.43;8.63;;;;;;;;;;5084159;28;24559;-47
2022/04/26 04:14:28;;;;;;;9.53;8.73;;;;;;;;;;5085380;28;24441;-47
2022/04/26 04:16:55;;;;;;;9.82;8.93;;;;;;;;;;5082827;28;24869;-47
2022/04/26 04:19:21;;;;;;;9.27;8.48;;;;;;;;;;5082773;28;24436;-48
2022/04/26 04:21:46;;;;;;;9.80;8.90;;;;;;;;;;5084427;28;25000;-47
2022/04/26 04:24:12;;;;;;;9.63;8.80;;;;;;;;;;5081311;28;24418;-47
2022/04/26 04:26:37;;;;;;;9.80;8.95;;;;;;;;;;5081304;28;24438;-47
2022/04/26 04:29:03;;;;;;;9.90;9.10;;;;;;;;;;5086414;28;25010;-48
2022/04/26 04:31:28;;;;;;;9.27;8.47;;;;;;;;;;5085464;28;24426;-48
2022/04/26 04:33:53;;;;;;;9.53;8.73;;;;;;;;;;5084516;28;24565;-48
2022/04/26 04:36:18;;;;;;;9.40;8.50;;;;;;;;;;5083541;28;24980;-48
2022/04/26 04:38:43;;;;;;;9.32;8.52;;;;;;;;;;5081874;28;24510;-48
2022/04/26 04:41:09;;;;;;;9.90;9.00;;;;;;;;;;5083828;28;24851;-48
2022/04/26 04:43:34;;;;;;;9.90;9.00;;;;;;;;;;5080909;28;24423;-48
2022/04/26 04:46:00;;;;;;;9.60;8.80;;;;;;;;;;5082964;28;24959;-49
2022/04/26 04:48:25;;;;;;;9.50;8.60;;;;;;;;;;5080223;28;24534;-47
2022/04/26 04:50:50;;;;;;;9.80;8.80;;;;;;;;;;5080673;28;25558;-47
2022/04/26 04:53:17;;;;;;;9.80;8.90;;;;;;;;;;5069393;28;24471;-47
2022/04/26 04:55:42;;;;;;;10.32;9.43;;;;;;;;;;5076993;28;24426;-47
2022/04/26 04:58:07;;;;;;;10.40;9.50;;;;;;;;;;5081578;28;24495;-47
2022/04/26 05:00:33;;;;;;;11.00;10.00;;;;;;;;;;5082643;28;25079;-47
2022/04/26 05:02:58;;;;;;;9.93;9.13;;;;;;;;;;5082480;28;24433;-47
2022/04/26 05:05:23;;;;;;;10.50;9.50;;;;;;;;;;5080932;28;24414;-47
2022/04/26 05:07:50;;;;;;;10.07;9.17;;;;;;;;;;5080729;28;24533;-47
2022/04/26 05:10:15;;;;;;;9.80;9.00;;;;;;;;;;5083024;28;24499;-47
2022/04/26 05:12:40;;;;;;;10.18;9.27;;;;;;;;;;5083453;28;24414;-47
2022/04/26 05:15:05;;;;;;;10.02;9.13;;;;;;;;;;5083667;28;24425;-47
2022/04/26 05:17:31;;;;;;;10.60;9.70;;;;;;;;;;5078947;28;25015;-47
2022/04/26 05:19:56;;;;;;;9.87;8.97;;;;;;;;;;5086589;28;24936;-47
2022/04/26 05:22:21;;;;;;;11.00;10.00;;;;;;;;;;5086959;28;24397;-47
2022/04/26 05:24:58;;;;;;;10.50;9.60;;;;;;;;;;5086730;28;24887;-47
2022/04/26 05:27:25;;;;;;;10.70;9.60;;;;;;;;;;5087458;28;24948;-47
2022/04/26 05:29:50;;;;;;;10.15;9.15;;;;;;;;;;5087436;28;24449;-47
2022/04/26 05:32:23;;;;;;;10.20;9.30;;;;;;;;;;5089153;28;24421;-47
2022/04/26 05:34:54;;;;;;;10.75;9.85;;;;;;;;;;5068755;28;24909;-47
2022/04/26 05:37:19;;;;;;;11.30;10.30;;;;;;;;;;5069889;28;24427;-49
2022/04/26 05:39:44;;;;;;;10.37;9.47;;;;;;;;;;5070790;28;24414;-47
2022/04/26 05:42:09;;;;;;;10.43;9.43;;;;;;;;;;5078632;28;24484;-47
2022/04/26 05:44:38;;;;;;;11.73;9.70;;;;;;;;;;5090611;28;24927;-46
2022/04/26 05:47:03;;;;;;;10.25;9.35;;;;;;;;;;5090814;28;24390;-48
2022/04/26 05:49:29;;;;;;;10.00;9.10;;;;;;;;;;5082677;28;24788;-47
2022/04/26 05:51:54;;;;;;;10.30;9.30;;;;;;;;;;5087315;28;24426;-48
2022/04/26 05:54:19;;;;;;;9.90;9.00;;;;;;;;;;5087891;28;25137;-48
2022/04/26 05:56:44;;;;;;;10.40;9.30;;;;;;;;;;5085896;28;24975;-48
2022/04/26 05:59:10;;;;;;;11.20;10.10;;;;;;;;;;5087783;28;25018;-62
2022/04/26 06:01:35;;;;;;;10.20;9.20;;;;;;;;;;5086260;28;24488;-62
2022/04/26 06:04:00;;;;;;;9.90;9.00;;;;;;;;;;5089078;28;24429;-48
2022/04/26 06:06:25;;;;;;;9.77;8.87;;;;;;;;;;5088163;28;24458;-48
2022/04/26 06:08:51;;;;;;;11.30;10.30;;;;;;;;;;5089711;28;24421;-48
2022/04/26 06:11:16;;;;;;;9.63;8.73;;;;;;;;;;5085399;28;24418;-48
2022/04/26 06:13:41;;;;;;;10.23;9.23;;;;;;;;;;5090024;28;24393;-49
2022/04/26 06:16:06;;;;;;;10.10;9.10;;;;;;;;;;5088005;28;24418;-48
2022/04/26 06:18:32;;;;;;;9.80;8.90;;;;;;;;;;5090389;28;24401;-48
2022/04/26 06:20:57;;;;;;;10.15;9.25;;;;;;;;;;5086385;28;24819;-48
2022/04/26 06:23:22;;;;;;;9.87;8.90;;;;;;;;;;5088272;28;24972;-48
2022/04/26 06:25:47;;;;;;;9.90;8.90;;;;;;;;;;5086689;28;24513;-48
2022/04/26 06:28:13;;;;;;;9.93;9.03;;;;;;;;;;5086420;28;24476;-49
2022/04/26 06:30:40;;;;;;;10.00;9.10;;;;;;;;;;5087819;28;24542;-48
2022/04/26 06:33:06;;;;;;;9.83;8.93;;;;;;;;;;5087934;28;24458;-48
2022/04/26 06:35:31;;;;;;;11.60;10.60;;;;;;;;;;5087790;28;24485;-48
2022/04/26 06:37:58;;;;;;;10.80;9.80;;;;;;;;;;5089820;28;24476;-48
2022/04/26 06:40:23;;;;;;;10.25;9.25;;;;;;;;;;5089561;28;24447;-47
2022/04/26 06:42:49;;;;;;;9.33;8.53;;;;;;;;;;5088862;28;24410;-48
2022/04/26 06:45:14;;;;;;;10.60;9.60;;;;;;;;;;5089669;28;24417;-48
2022/04/26 06:47:39;;;;;;;10.87;9.80;;;;;;;;;;5089346;28;25007;-48
2022/04/26 06:50:04;;;;;;;10.15;9.25;;;;;;;;;;5089240;28;24974;-47
2022/04/26 06:52:31;;;;;;;11.20;10.10;;;;;;;;;;5089237;28;24486;-48
2022/04/26 06:54:57;;;;;;;10.30;9.40;;;;;;;;;;5089246;28;24477;-48
2022/04/26 06:57:22;;;;;;;10.30;9.40;;;;;;;;;;5089328;28;24406;-48
2022/04/26 06:59:47;;;;;;;12.23;10.70;;;;;;;;;;5088201;28;24784;-48
2022/04/26 07:02:13;;;;;;;9.90;9.00;;;;;;;;;;5089651;28;24387;-48
2022/04/26 07:04:38;;;;;;;10.10;9.20;;;;;;;;;;5089195;28;24813;-48
2022/04/26 07:07:03;;;;;;;10.40;9.40;;;;;;;;;;5088978;28;24390;-48
2022/04/26 07:09:28;;;;;;;10.37;9.47;;;;;;;;;;5089323;28;24421;-48
2022/04/26 07:11:53;;;;;;;10.50;9.60;;;;;;;;;;5088313;28;24447;-48
2022/04/26 07:14:19;;;;;;;10.87;9.87;;;;;;;;;;5088902;28;24416;-48
2022/04/26 07:16:48;;;;;;;11.47;10.37;;;;;;;;;;5088932;28;24410;-48
2022/04/26 07:19:13;;;;;;;10.68;9.70;;;;;;;;;;5088974;28;24402;-48
2022/04/26 07:21:38;;;;;;;10.73;9.77;;;;;;;;;;5088559;28;24765;-48
2022/04/26 07:24:04;;;;;;;12.30;11.20;;;;;;;;;;5088993;28;24463;-48
2022/04/26 07:26:29;;;;;;;11.30;10.20;;;;;;;;;;5088283;28;24527;-48
2022/04/26 07:28:54;;;;;;;11.60;10.50;;;;;;;;;;5088579;28;24418;-49
2022/04/26 07:31:19;;;;;;;11.05;9.95;;;;;;;;;;5087079;28;24878;-48
2022/04/26 07:36:28;;;;;;;12.55;11.25;;;;;;;;;;5088559;28;24381;-48
2022/04/26 07:38:54;;;;;;;13.18;11.98;;;;;;;;;;5088472;28;24394;-48
2022/04/26 07:41:19;;;;;;;12.00;10.90;;;;;;;;;;5088492;28;24379;-48
2022/04/26 07:43:44;;;;;;;12.30;11.10;;;;;;;;;;5086781;28;24944;-48
2022/04/26 07:46:12;;;;;;;14.13;12.63;;;;;;;;;;5077376;28;24453;-48
2022/04/26 07:48:39;;;;;;;14.02;12.63;;;;;;;;;;5068307;28;24403;-48
2022/04/26 07:51:04;;;;;;;14.18;12.68;;;;;;;;;;5068196;28;24757;-48
2022/04/26 07:53:29;;;;;;;14.23;12.83;;;;;;;;;;5068915;28;24426;-49
2022/04/26 07:55:54;;;;;;;15.60;14.00;;;;;;;;;;5077097;28;24429;-48
2022/04/26 07:58:20;;;;;;;14.87;13.37;;;;;;;;;;5088607;28;24502;-48
2022/04/26 08:00:45;;;;;;;15.33;13.73;;;;;;;;;;5088249;28;24394;-48
2022/04/26 08:03:10;;;;;;;14.80;13.32;;;;;;;;;;5088078;28;24745;-48
2022/04/26 08:05:35;;;;;;;13.60;12.40;;;;;;;;;;5084001;28;24895;-48
2022/04/26 08:08:00;;;;;;;16.70;14.98;;;;;;;;;;5067531;28;24410;-47
2022/04/26 08:10:26;;;;;;;16.92;15.20;;;;;;;;;;5067614;28;25070;-48
2022/04/26 08:12:51;;;;;;;16.08;14.25;;;;;;;;;;5067458;28;24409;-48
2022/04/26 08:15:18;;;;;;;15.90;14.40;;;;;;;;;;5067803;28;24402;-48
2022/04/26 08:17:44;;;;;;;18.42;14.80;;;;;;;;;;5068341;28;24437;-48
2022/04/26 08:20:10;;;;;;;16.97;15.17;;;;;;;;;;5067555;28;24753;-48
2022/04/26 08:22:35;;;;;;;16.63;15.02;;;;;;;;;;5067723;28;24390;-48
2022/04/26 08:27:44;;;;;;;16.10;14.50;;;;;;;;;;5068304;28;24406;-48
2022/04/26 08:30:09;;;;;;;16.55;14.95;;;;;;;;;;5084788;28;24525;-48
2022/04/26 08:32:39;;;;;;;15.53;14.03;;;;;;;;;;5087860;28;24398;-48
2022/04/26 08:35:06;;;;;;;15.10;13.60;;;;;;;;;;5087155;28;24481;-48
2022/04/26 08:37:32;;;;;;;13.35;12.05;;;;;;;;;;5086620;28;24487;-49
2022/04/26 08:39:58;;;;;;;13.63;12.20;;;;;;;;;;5087773;28;24428;-46
2022/04/26 08:42:33;;;;;;;14.27;12.77;;;;;;;;;;5087646;28;24431;-46
2022/04/26 08:44:58;;;;;;;14.47;13.07;;;;;;;;;;5087187;28;24398;-47
2022/04/26 08:52:51;;;;;;;15.32;13.65;;;;;;;;;;5087386;28;24393;-47
2022/04/26 08:55:17;;;;;;;13.97;12.77;;;;;;;;;;5087218;28;24383;-47
2022/04/26 08:57:42;;;;;;;13.10;11.80;;;;;;;;;;5086565;28;24426;-47
2022/04/26 09:00:11;;;;;;;10.90;9.90;;;;;;;;;;5086683;28;24423;-47
2022/04/26 09:02:36;;;;;;;14.40;13.00;;;;;;;;;;5086495;28;24481;-47
2022/04/26 09:05:08;;;;;;;12.83;11.63;;;;;;;;;;5085213;28;25264;-47
2022/04/26 09:07:34;;;;;;;11.75;10.60;;;;;;;;;;5087020;28;24387;-46
2022/04/26 09:10:10;;;;;;;11.65;10.57;;;;;;;;;;5087010;28;24468;-47
2022/04/26 09:12:54;;;;;;;11.43;10.30;;;;;;;;;;5087203;28;24426;-47
2022/04/26 09:15:19;;;;;;;11.38;10.38;;;;;;;;;;5087210;28;24386;-47
2022/04/26 09:17:44;;;;;;;11.10;10.10;;;;;;;;;;5086952;28;24764;-47
2022/04/26 09:20:10;;;;;;;12.32;11.02;;;;;;;;;;5086017;28;24422;-47
2022/04/26 09:22:35;;;;;;;12.50;11.30;;;;;;;;;;5086965;28;24398;-47
2022/04/26 09:25:04;;;;;;;8.53;7.80;;;;;;;;;;5086886;28;24404;-47
2022/04/26 09:27:29;;;;;;;9.38;8.48;;;;;;;;;;5084756;28;24498;-47
2022/04/26 09:29:54;;;;;;;10.15;9.25;;;;;;;;;;5086365;28;24867;-47
2022/04/26 09:32:20;;;;;;;9.63;8.73;;;;;;;;;;5086873;28;24387;-47
2022/04/26 09:34:45;;;;;;;9.90;9.00;;;;;;;;;;5086610;28;24473;-47
2022/04/26 09:37:11;;;;;;;11.03;10.03;;;;;;;;;;5086405;28;24422;-47
2022/04/26 09:39:39;;;;;;;9.20;8.40;;;;;;;;;;5086692;28;24390;-47
2022/04/26 09:42:04;;;;;;;9.02;8.18;;;;;;;;;;5086214;28;24764;-46
2022/04/26 09:44:30;;;;;;;8.50;7.70;;;;;;;;;;5086536;28;24413;-47
2022/04/26 09:46:55;;;;;;;8.50;7.80;;;;;;;;;;5086395;28;24473;-47
2022/04/26 09:49:21;;;;;;;7.55;6.95;;;;;;;;;;5086704;28;24813;-47
2022/04/26 09:51:47;;;;;;;7.65;7.05;;;;;;;;;;5086279;28;24479;-47
2022/04/26 09:54:13;;;;;;;7.68;7.00;;;;;;;;;;5086551;28;24418;-47
2022/04/26 09:56:41;;;;;;;6.57;6.07;;;;;;;;;;5086141;28;24551;-47
2022/04/26 09:59:06;;;;;;;7.80;7.10;;;;;;;;;;5086741;28;24934;-46
2022/04/26 10:01:35;;;;;;;8.03;7.33;;;;;;;;;;5086617;28;24410;-47
2022/04/26 10:04:04;;;;;;;7.50;6.90;;;;;;;;;;5085844;28;24495;-47
2022/04/26 10:06:33;;;;;;;7.40;6.80;;;;;;;;;;5086591;28;24437;-47
2022/04/26 10:08:59;;;;;;;6.80;6.13;;;;;;;;;;5086419;28;24394;-47
2022/04/26 10:11:24;;;;;;;7.53;6.93;;;;;;;;;;5086161;28;24403;-47
2022/04/26 10:13:49;;;;;;;6.63;6.13;;;;;;;;;;5088248;28;24421;-47
2022/04/26 10:16:21;;;;;;;6.78;6.28;;;;;;;;;;5089979;28;24403;-46
2022/04/26 10:18:48;;;;;;;6.95;6.35;;;;;;;;;;5090096;28;24409;-47
2022/04/26 10:21:22;;;;;;;6.68;6.07;;;;;;;;;;5089953;28;24391;-46
2022/04/26 10:23:50;;;;;;;6.50;6.00;;;;;;;;;;5088611;28;25257;-46
2022/04/26 10:28:53;;;;;;;6.20;5.70;;;;;;;;;;5090086;28;24444;-47
2022/04/26 10:31:19;;;;;;;6.70;6.20;;;;;;;;;;5089970;28;24763;-47
2022/04/26 10:33:47;;;;;;;6.38;5.72;;;;;;;;;;5089723;28;25059;-47
2022/04/26 10:36:30;;;;;;;6.20;5.70;;;;;;;;;;5089229;28;24878;-47
2022/04/26 10:39:04;;;;;;;6.97;6.38;;;;;;;;;;5090073;28;24401;-47
2022/04/26 10:41:43;;;;;;;5.30;4.83;;;;;;;;;;5089877;28;24459;-47
2022/04/26 10:44:21;;;;;;;5.00;4.63;;;;;;;;;;5088920;28;24457;-47
2022/04/26 10:46:50;;;;;;;5.03;4.53;;;;;;;;;;5088846;28;25274;-47
2022/04/26 10:49:24;;;;;;;3.83;3.53;;;;;;;;;;5089457;28;24393;-47
2022/04/26 10:51:51;;;;;;;3.83;3.53;;;;;;;;;;5089382;28;24381;-47
2022/04/26 10:54:36;;;;;;;5.00;4.60;;;;;;;;;;5089124;28;25020;-46
2022/04/26 10:57:02;;;;;;;4.00;3.70;;;;;;;;;;5088731;28;24856;-47
2022/04/26 10:59:27;;;;;;;4.80;4.40;;;;;;;;;;5088611;28;24487;-47
2022/04/26 11:01:52;;;;;;;3.60;3.30;;;;;;;;;;5089445;28;24399;-46
2022/04/26 11:04:18;;;;;;;4.15;3.85;;;;;;;;;;5088959;28;24394;-47
2022/04/26 11:06:43;;;;;;;3.53;3.22;;;;;;;;;;5089139;28;24943;-47
2022/04/26 11:09:10;;;;;;;3.37;3.17;;;;;;;;;;5087151;28;24415;-47
2022/04/26 11:11:47;;;;;;;3.47;3.25;;;;;;;;;;5089255;28;24386;-46
2022/04/26 11:14:13;;;;;;;3.75;3.45;;;;;;;;;;5088834;28;24399;-47
2022/04/26 11:16:52;;;;;;;4.70;4.30;;;;;;;;;;5088979;28;24463;-47
2022/04/26 11:19:24;;;;;;;5.55;5.05;;;;;;;;;;5088492;28;24487;-47
2022/04/26 11:21:50;;;;;;;5.20;4.80;;;;;;;;;;5088913;28;24422;-47
2022/04/26 11:29:54;;;;;;;5.40;4.90;;;;;;;;;;5086821;28;24456;-47
2022/04/26 11:32:28;;;;;;;4.90;4.50;;;;;;;;;;5088416;28;24398;-47
2022/04/26 11:34:53;;;;;;;5.73;5.23;;;;;;;;;;5088744;28;24406;-46
2022/04/26 11:37:18;;;;;;;6.10;5.60;;;;;;;;;;5088607;28;24410;-47
2022/04/26 11:39:43;;;;;;;5.73;5.33;;;;;;;;;;5088316;28;24402;-47
2022/04/26 11:42:09;;;;;;;6.18;5.68;;;;;;;;;;5052323;28;21053;-47
2022/04/26 11:44:35;;;;;;;6.00;5.50;;;;;;;;;;5068265;28;24390;-47
2022/04/26 11:47:00;;;;;;;5.73;5.23;;;;;;;;;;5068300;28;24553;-47
2022/04/26 11:49:38;;;;;;;6.67;6.07;;;;;;;;;;5049925;28;25026;-46
2022/04/26 11:52:04;;;;;;;5.77;5.27;;;;;;;;;;5077782;28;25024;-47
2022/04/26 11:54:38;;;;;;;6.50;6.00;;;;;;;;;;5087807;28;24696;-47
2022/04/26 11:57:04;;;;;;;6.00;5.50;;;;;;;;;;5087663;28;24944;-46
2022/04/26 11:59:29;;;;;;;5.50;5.00;;;;;;;;;;5085969;28;24431;-47
2022/04/26 12:01:54;;;;;;;6.10;5.50;;;;;;;;;;5072058;28;24407;-47
2022/04/26 12:04:20;;;;;;;4.87;4.47;;;;;;;;;;5067745;28;24438;-47
2022/04/26 12:06:45;;;;;;;5.50;5.10;;;;;;;;;;5068079;28;24399;-46
2022/04/26 12:09:12;;;;;;;5.55;5.15;;;;;;;;;;5067792;28;24802;-50
2022/04/26 12:11:38;;;;;;;6.68;6.10;;;;;;;;;;5068425;28;25155;-47
2022/04/26 12:14:14;;;;;;;6.38;5.78;;;;;;;;;;5067429;28;24632;-47
2022/04/26 12:16:42;;;;;;;6.32;5.72;;;;;;;;;;5067682;28;24913;-47
2022/04/26 12:19:07;;;;;;;5.60;5.20;;;;;;;;;;5067507;28;24528;-47
2022/04/26 12:21:43;;;;;;;5.77;5.27;;;;;;;;;;5068310;28;24465;-47
2022/04/26 12:24:29;;;;;;;5.50;4.90;;;;;;;;;;5067291;28;24423;-47
2022/04/26 12:26:55;;;;;;;5.30;4.80;;;;;;;;;;5066813;28;24580;-47
2022/04/26 12:29:21;;;;;;;5.50;5.00;;;;;;;;;;5073596;28;24474;-47
2022/04/26 12:31:47;;;;;;;5.43;5.00;;;;;;;;;;5087517;28;24398;-47
2022/04/26 12:34:16;;;;;;;6.10;5.50;;;;;;;;;;5087390;28;24410;-47
2022/04/26 12:36:52;;;;;;;5.30;4.90;;;;;;;;;;5086593;28;24487;-47
2022/04/26 12:39:18;;;;;;;5.97;5.40;;;;;;;;;;5087024;28;25089;-47
2022/04/26 12:41:47;;;;;;;5.67;5.17;;;;;;;;;;5087957;28;24511;-47
2022/04/26 12:44:13;;;;;;;4.57;4.25;;;;;;;;;;5086947;28;24395;-46
2022/04/26 12:46:44;;;;;;;5.90;5.40;;;;;;;;;;5087779;28;24401;-46
2022/04/26 12:51:54;;;;;;;5.60;4.93;;;;;;;;;;5086890;28;24410;-46
2022/04/26 12:54:19;;;;;;;5.40;5.00;;;;;;;;;;5086659;28;24948;-46
2022/04/26 12:56:55;;;;;;;4.87;4.47;;;;;;;;;;5087550;28;24425;-46
2022/04/26 12:59:20;;;;;;;5.30;4.80;;;;;;;;;;5087089;28;24473;-46
2022/04/26 13:01:45;;;;;;;5.00;4.60;;;;;;;;;;5087109;28;25091;-47
2022/04/26 13:04:10;;;;;;;5.43;5.00;;;;;;;;;;5086509;28;24402;-47
2022/04/26 13:06:35;;;;;;;5.15;4.75;;;;;;;;;;5086894;28;24473;-47
2022/04/26 13:09:00;;;;;;;5.07;4.68;;;;;;;;;;5085443;28;24753;-47
2022/04/26 13:11:25;;;;;;;5.40;4.90;;;;;;;;;;5086894;28;24390;-46
2022/04/26 13:13:51;;;;;;;5.00;4.60;;;;;;;;;;5086850;28;24443;-48
2022/04/26 13:16:19;;;;;;;4.60;4.30;;;;;;;;;;5086643;28;24749;-48
2022/04/26 13:18:45;;;;;;;5.90;5.40;;;;;;;;;;5086523;28;24426;-47
2022/04/26 13:21:10;;;;;;;5.80;5.40;;;;;;;;;;5086668;28;24784;-48
2022/04/26 13:23:36;;;;;;;5.10;4.70;;;;;;;;;;5073650;28;24951;-48
2022/04/26 13:26:01;;;;;;;5.55;4.90;;;;;;;;;;5079452;28;24505;-48
2022/04/26 13:28:27;;;;;;;4.90;4.50;;;;;;;;;;5084691;28;24452;-48
2022/04/26 13:30:52;;;;;;;4.50;4.20;;;;;;;;;;5086545;28;24519;-48
2022/04/26 13:33:17;;;;;;;4.50;4.20;;;;;;;;;;5086444;28;24825;-48
2022/04/26 13:35:42;;;;;;;4.70;4.40;;;;;;;;;;5084525;28;24422;-48
2022/04/26 13:38:09;;;;;;;4.90;4.50;;;;;;;;;;5080695;28;24437;-46
2022/04/26 13:40:35;;;;;;;4.40;4.10;;;;;;;;;;5082785;28;24394;-49
2022/04/26 13:43:01;;;;;;;5.18;4.78;;;;;;;;;;5086302;28;24920;-46
2022/04/26 13:45:26;;;;;;;4.28;3.92;;;;;;;;;;5086383;28;24402;-47
2022/04/26 13:47:52;;;;;;;4.20;3.90;;;;;;;;;;5070773;28;25025;-47
2022/04/26 13:50:17;;;;;;;4.45;4.05;;;;;;;;;;5088107;28;24414;-47
2022/04/26 13:52:44;;;;;;;4.00;3.70;;;;;;;;;;5087668;28;24425;-47
2022/04/26 13:55:09;;;;;;;4.30;3.90;;;;;;;;;;5077751;28;24429;-47
2022/04/26 13:57:34;;;;;;;4.27;3.97;;;;;;;;;;5086694;28;24449;-47
2022/04/26 14:00:00;;;;;;;4.93;4.53;;;;;;;;;;5081700;28;24955;-48
2022/04/26 14:02:26;;;;;;;5.82;5.10;;;;;;;;;;5085784;28;25001;-48
2022/04/26 14:04:51;;;;;;;5.20;4.80;;;;;;;;;;5071163;28;24509;-48
2022/04/26 14:07:17;;;;;;;6.07;5.50;;;;;;;;;;5069893;28;24889;-47
2022/04/26 14:09:42;;;;;;;5.63;5.22;;;;;;;;;;5079368;28;24430;-47
2022/04/26 14:12:08;;;;;;;5.27;4.77;;;;;;;;;;5087572;28;24421;-48
2022/04/26 14:22:46;;;;;;;4.80;4.40;;;;;;;;;;5089198;28;24852;-47
2022/04/26 14:25:11;;;;;;;5.30;4.80;;;;;;;;;;5088066;28;25008;-47
2022/04/26 14:27:37;;;;;;;4.70;4.30;;;;;;;;;;5085058;28;24502;-47
2022/04/26 14:30:03;;;;;;;5.10;4.43;;;;;;;;;;5072425;28;24488;-47
2022/04/26 14:32:29;;;;;;;4.82;4.50;;;;;;;;;;5072303;28;25025;-47
2022/04/26 14:34:54;;;;;;;5.20;4.80;;;;;;;;;;5090010;28;24398;-47
2022/04/26 14:37:19;;;;;;;5.32;4.82;;;;;;;;;;5078106;28;24451;-48
2022/04/26 14:39:44;;;;;;;5.60;5.10;;;;;;;;;;5069751;28;24426;-51
2022/04/26 14:42:10;;;;;;;6.10;5.50;;;;;;;;;;5080152;28;24824;-47
2022/04/26 14:44:35;;;;;;;5.80;5.30;;;;;;;;;;5070359;28;24826;-47
2022/04/26 14:47:02;;;;;;;5.57;5.18;;;;;;;;;;5069202;28;24386;-47
2022/04/26 14:49:27;;;;;;;5.57;5.18;;;;;;;;;;5084060;28;24528;-48
2022/04/26 14:51:52;;;;;;;5.70;5.20;;;;;;;;;;5088839;28;24504;-48
2022/04/26 14:54:18;;;;;;;6.10;5.60;;;;;;;;;;5089052;28;24468;-48
2022/04/26 14:56:43;;;;;;;5.50;5.10;;;;;;;;;;5077232;28;24422;-47
2022/04/26 14:59:09;;;;;;;5.27;4.87;;;;;;;;;;5087548;28;24413;-48
2022/04/26 15:01:34;;;;;;;5.00;4.60;;;;;;;;;;5087637;28;24489;-48
2022/04/26 15:04:00;;;;;;;5.10;4.70;;;;;;;;;;5088863;28;25016;-47
2022/04/26 15:06:25;;;;;;;4.90;4.50;;;;;;;;;;5088854;28;24389;-47
2022/04/26 15:11:35;;;;;;;5.03;4.60;;;;;;;;;;5078437;28;24425;-48
2022/04/26 15:16:51;;;;;;;4.90;4.50;;;;;;;;;;5058892;28;24473;-48
2022/04/26 15:19:17;;;;;;;4.80;4.40;;;;;;;;;;5087328;28;24971;-48
2022/04/26 15:21:43;;;;;;;4.90;4.50;;;;;;;;;;5088389;28;24451;-48
2022/04/26 15:24:08;;;;;;;5.35;4.75;;;;;;;;;;5088400;28;24436;-48
2022/04/26 15:26:34;;;;;;;5.00;4.60;;;;;;;;;;5086684;28;24444;-48
2022/04/26 15:29:00;;;;;;;4.30;3.90;;;;;;;;;;5087132;28;24843;-48
2022/04/26 15:31:25;;;;;;;4.78;4.38;;;;;;;;;;5087989;28;24391;-48
2022/04/26 15:33:51;;;;;;;5.00;4.50;;;;;;;;;;5088257;28;25167;-48
2022/04/26 15:36:17;;;;;;;4.95;4.55;;;;;;;;;;5088251;28;24763;-48
2022/04/26 15:38:43;;;;;;;4.85;4.45;;;;;;;;;;5087670;28;24437;-48
2022/04/26 15:41:08;;;;;;;4.47;4.18;;;;;;;;;;5088030;28;24411;-48
2022/04/26 15:43:34;;;;;;;3.60;3.40;;;;;;;;;;5086770;28;24461;-48
2022/04/26 15:46:00;;;;;;;3.75;3.45;;;;;;;;;;5088360;28;24387;-48
2022/04/26 15:48:26;;;;;;;3.80;3.50;;;;;;;;;;5086750;28;24438;-48
2022/04/26 15:50:51;;;;;;;3.90;3.60;;;;;;;;;;5085640;28;24834;-48
2022/04/26 15:53:16;;;;;;;4.00;3.60;;;;;;;;;;5074990;28;24418;-48
2022/04/26 15:55:42;;;;;;;3.23;3.03;;;;;;;;;;5067799;28;24413;-48
2022/04/26 15:58:08;;;;;;;3.40;3.10;;;;;;;;;;5080776;28;24491;-47
2022/04/26 16:00:33;;;;;;;3.72;3.42;;;;;;;;;;5087547;28;24947;-47
2022/04/26 16:02:59;;;;;;;3.80;3.50;;;;;;;;;;5087706;28;24462;-47
2022/04/26 16:05:24;;;;;;;3.25;3.05;;;;;;;;;;5088085;28;24379;-47
2022/04/26 16:07:49;;;;;;;3.55;3.25;;;;;;;;;;5083138;28;24407;-48
2022/04/26 16:21:11;;;;;;;4.30;4.00;;;;;;;;;;5087503;28;24394;-48
2022/04/26 16:23:36;;;;;;;5.20;4.05;;;;;;;;;;5084264;28;24422;-48
2022/04/26 16:26:02;;;;;;;4.20;3.90;;;;;;;;;;5087359;28;24414;-47
2022/04/26 16:28:30;;;;;;;4.00;3.70;;;;;;;;;;5086850;28;24495;-47
2022/04/26 16:30:56;;;;;;;3.97;3.67;;;;;;;;;;5086520;28;25146;-47
2022/04/26 16:33:21;;;;;;;4.47;3.60;;;;;;;;;;5087074;28;24424;-47
2022/04/26 16:35:46;;;;;;;4.03;3.73;;;;;;;;;;5067702;28;24403;-47
2022/04/26 16:38:11;;;;;;;4.37;4.07;;;;;;;;;;5067052;28;24442;-48
2022/04/26 16:40:37;;;;;;;4.83;4.53;;;;;;;;;;5067408;28;24843;-48
2022/04/26 16:43:02;;;;;;;4.80;4.40;;;;;;;;;;5066561;28;24457;-47
2022/04/26 16:45:28;;;;;;;4.73;4.40;;;;;;;;;;5067337;28;24444;-48
2022/04/26 16:47:53;;;;;;;4.57;4.18;;;;;;;;;;5066536;28;24460;-47
2022/04/26 16:50:18;;;;;;;4.73;4.43;;;;;;;;;;5067158;28;24427;-48
2022/04/26 16:52:46;;;;;;;4.40;4.10;;;;;;;;;;5066204;28;24503;-47
2022/04/26 16:55:11;;;;;;;4.82;4.30;;;;;;;;;;5063584;28;24418;-48
2022/04/26 16:57:36;;;;;;;4.80;4.40;;;;;;;;;;5066215;28;24491;-47
2022/04/26 17:00:02;;;;;;;5.30;4.80;;;;;;;;;;5070319;28;24947;-47
2022/04/26 17:02:28;;;;;;;5.15;4.75;;;;;;;;;;5086855;28;24474;-47
2022/04/26 17:04:54;;;;;;;5.70;5.20;;;;;;;;;;5062288;28;24515;-48
2022/04/26 17:07:19;;;;;;;5.22;4.82;;;;;;;;;;5064485;28;24496;-47
2022/04/26 17:09:44;;;;;;;5.40;4.90;;;;;;;;;;5064154;28;24398;-48
2022/04/26 17:12:12;;;;;;;6.37;5.10;;;;;;;;;;5078434;28;24425;-47
2022/04/26 17:14:39;;;;;;;5.40;4.90;;;;;;;;;;5061181;28;24869;-48
2022/04/26 17:17:04;;;;;;;5.55;5.05;;;;;;;;;;5063826;28;24430;-47
2022/04/26 17:19:29;;;;;;;5.10;4.70;;;;;;;;;;5062652;28;24423;-48
2022/04/26 17:21:56;;;;;;;5.60;5.10;;;;;;;;;;5061186;28;24510;-47
2022/04/26 17:27:05;;;;;;;5.53;5.07;;;;;;;;;;5049228;28;24390;-50
2022/04/26 17:29:30;;;;;;;5.33;4.83;;;;;;;;;;5078079;28;24733;-48
2022/04/26 17:31:56;;;;;;;4.70;4.30;;;;;;;;;;5087281;28;24413;-47
2022/04/26 17:34:21;;;;;;;4.40;4.10;;;;;;;;;;5083673;28;24422;-47
2022/04/26 17:36:47;;;;;;;5.20;4.70;;;;;;;;;;5075520;28;24422;-55
2022/04/26 17:39:12;;;;;;;4.90;4.50;;;;;;;;;;5086927;28;24447;-47
2022/04/26 17:41:41;;;;;;;4.85;4.45;;;;;;;;;;5086837;28;24444;-47
2022/04/26 17:44:06;;;;;;;5.20;4.70;;;;;;;;;;5084494;28;25074;-47
2022/04/26 17:46:31;;;;;;;4.88;4.40;;;;;;;;;;5080679;28;24442;-48
2022/04/26 17:48:57;;;;;;;5.07;4.67;;;;;;;;;;5082841;28;24940;-47
2022/04/26 17:51:22;;;;;;;4.30;4.00;;;;;;;;;;5082528;28;25029;-47
2022/04/26 17:56:32;;;;;;;5.60;5.00;;;;;;;;;;5086846;28;24769;-47
2022/04/26 17:58:58;;;;;;;5.07;4.68;;;;;;;;;;5080484;28;24445;-47
2022/04/26 18:01:23;;;;;;;4.77;4.37;;;;;;;;;;5081950;28;24410;-47
2022/04/26 18:03:48;;;;;;;5.60;5.00;;;;;;;;;;5085016;28;24824;-47
2022/04/26 18:06:14;;;;;;;5.20;4.80;;;;;;;;;;5077708;28;24494;-46
2022/04/26 18:08:41;;;;;;;4.32;4.03;;;;;;;;;;5081551;28;24422;-47
2022/04/26 18:11:08;;;;;;;5.00;4.60;;;;;;;;;;5086512;28;24501;-47
2022/04/26 18:13:34;;;;;;;5.10;4.70;;;;;;;;;;5084104;28;24476;-47
2022/04/26 18:15:59;;;;;;;4.80;4.40;;;;;;;;;;5088137;28;24418;-47
2022/04/26 18:18:25;;;;;;;5.00;4.50;;;;;;;;;;5076870;28;25289;-47
2022/04/26 18:20:51;;;;;;;4.93;4.47;;;;;;;;;;5083131;28;24426;-47
2022/04/26 18:23:16;;;;;;;4.82;4.38;;;;;;;;;;5070205;28;24971;-47
2022/04/26 18:26:23;;;;;;;5.13;4.73;;;;;;;;;;5087859;28;24425;-47
2022/04/26 18:28:31;;;;;;;4.80;4.40;;;;;;;;;;5082079;28;24986;-48
2022/04/26 18:30:56;;;;;;;5.40;4.90;;;;;;;;;;5083676;28;25318;-47
2022/04/26 18:33:22;;;;;;;6.33;5.50;;;;;;;;;;5085475;28;24433;-47
2022/04/26 18:35:47;;;;;;;5.70;5.10;;;;;;;;;;5080262;28;24461;-47
2022/04/26 18:38:13;;;;;;;6.03;5.43;;;;;;;;;;5081817;28;24648;-47
2022/04/26 18:40:38;;;;;;;6.20;5.60;;;;;;;;;;5086062;28;24434;-47
2022/04/26 18:43:03;;;;;;;5.50;5.10;;;;;;;;;;5083042;28;24457;-47
2022/04/26 18:45:28;;;;;;;6.20;5.60;;;;;;;;;;5083201;28;24468;-48
2022/04/26 18:47:54;;;;;;;6.20;5.60;;;;;;;;;;5081890;28;25315;-47
2022/04/26 18:50:19;;;;;;;8.93;8.13;;;;;;;;;;5081584;28;24422;-47
2022/04/26 18:52:45;;;;;;;7.20;6.50;;;;;;;;;;5081051;28;24434;-47
2022/04/26 18:55:10;;;;;;;7.03;6.30;;;;;;;;;;5077924;28;24502;-47
2022/04/26 18:57:35;;;;;;;8.53;6.60;;;;;;;;;;5084465;28;24437;-47
2022/04/26 19:00:00;;;;;;;6.93;6.07;;;;;;;;;;5085643;28;24829;-47
2022/04/26 19:02:25;;;;;;;6.90;6.20;;;;;;;;;;5079670;28;24500;-48